createdAt,value
2023-02-06T14:11:09.895Z,102363.75
2023-02-06T14:14:52.531Z,102377.72
2023-02-06T14:18:24.383Z,102379.50
2023-02-06T14:21:48.421Z,102380.00
2023-02-06T14:25:15.167Z,102373.47
2023-02-06T14:28:36.932Z,102380.41
2023-02-06T14:32:07.066Z,102382.00
2023-02-06T14:35:40.187Z,102374.75
2023-02-06T14:39:08.578Z,102379.13
2023-02-06T14:42:43.191Z,102380.59
2023-02-06T14:46:06.129Z,102383.34
2023-02-06T14:49:18.875Z,102384.03
2023-02-06T14:52:25.601Z,102381.91
2023-02-06T14:55:40.681Z,102379.53
2023-02-06T14:58:46.575Z,102380.00
2023-02-06T15:01:53.132Z,102383.97
2023-02-06T15:04:59.867Z,102386.69
2023-02-06T15:08:05.193Z,102387.78
2023-02-06T15:11:18.937Z,102381.06
2023-02-06T15:14:35.016Z,102373.84
2023-02-06T15:17:39.048Z,102386.69
2023-02-06T15:20:54.235Z,102384.31
2023-02-06T15:24:02.265Z,102387.91
2023-02-06T15:27:13.847Z,102397.97
2023-02-06T15:30:23.946Z,102398.97
2023-02-06T15:33:30.584Z,102400.50
2023-02-06T15:36:37.867Z,102400.78
2023-02-06T15:39:41.910Z,102405.13
2023-02-06T15:42:49.001Z,102410.78
2023-02-06T15:45:56.424Z,102415.59
2023-02-06T15:48:59.749Z,102413.28
2023-02-06T15:52:03.246Z,102418.13
2023-02-06T15:55:07.285Z,102422.25
2023-02-06T15:58:15.256Z,102428.28
2023-02-06T16:01:20.495Z,102425.13
2023-02-06T16:04:35.434Z,102436.59
2023-02-06T16:07:38.283Z,102438.03
2023-02-06T16:10:42.038Z,102449.00
2023-02-06T16:13:46.012Z,102448.50
2023-02-06T16:17:21.934Z,102449.13
2023-02-06T16:20:41.068Z,102454.72
2023-02-06T16:23:44.373Z,102453.72
2023-02-06T16:26:49.607Z,102456.38
2023-02-06T16:29:55.570Z,102462.84
2023-02-06T16:33:08.764Z,102466.81
2023-02-06T16:36:14.951Z,102467.72
2023-02-06T16:39:17.946Z,102461.34
2023-02-06T16:42:24.396Z,102465.88
2023-02-06T16:45:28.324Z,102467.50
2023-02-06T16:48:31.203Z,102471.78
2023-02-06T16:51:34.107Z,102474.25
2023-02-06T16:54:37.966Z,102480.69
2023-02-06T16:57:43.425Z,102484.47
2023-02-06T17:00:48.002Z,102490.19
2023-02-06T17:03:51.919Z,102486.25
2023-02-06T17:06:58.193Z,102495.31
2023-02-06T17:10:01.992Z,102493.66
2023-02-06T17:13:05.026Z,102493.13
2023-02-06T17:16:14.464Z,102496.13
2023-02-06T17:19:17.800Z,102499.06
2023-02-06T17:22:20.762Z,102499.28
2023-02-06T17:25:23.882Z,102495.88
2023-02-06T17:28:26.739Z,102499.88
2023-02-06T17:31:30.054Z,102500.41
2023-02-06T17:34:33.487Z,102504.13
2023-02-06T17:37:36.588Z,102505.97
2023-02-06T17:40:42.320Z,102504.94
2023-02-06T17:43:50.119Z,102504.94
2023-02-06T17:46:53.009Z,102508.91
2023-02-06T17:49:58.601Z,102519.00
2023-02-06T17:53:02.911Z,102514.25
2023-02-06T17:56:07.653Z,102519.06
2023-02-06T17:59:10.847Z,102523.03
2023-02-06T18:02:14.765Z,102520.69
2023-02-06T18:05:21.796Z,102519.34
2023-02-06T18:08:25.352Z,102528.41
2023-02-06T18:11:28.515Z,102533.69
2023-02-06T18:14:33.500Z,102527.81
2023-02-06T18:17:36.712Z,102524.13
2023-02-06T18:20:43.763Z,102524.94
2023-02-06T18:23:48.929Z,102528.66
2023-02-06T18:26:52.062Z,102533.72
2023-02-06T18:29:55.428Z,102535.88
2023-02-06T18:32:58.482Z,102535.84
2023-02-06T18:36:07.001Z,102540.41
2023-02-06T18:39:10.632Z,102542.03
2023-02-06T18:42:32.404Z,102535.13
2023-02-06T18:45:38.978Z,102546.00
2023-02-06T18:48:42.401Z,102541.78
2023-02-06T18:51:45.576Z,102544.13
2023-02-06T18:54:48.945Z,102538.84
2023-02-06T18:57:52.695Z,102546.28
2023-02-06T19:00:58.023Z,102553.19
2023-02-06T19:04:01.260Z,102553.47
2023-02-06T19:07:06.941Z,102556.41
2023-02-06T19:10:16.102Z,102552.66
2023-02-06T19:13:20.408Z,102555.06
2023-02-06T19:16:26.563Z,102555.63
2023-02-06T19:19:30.098Z,102559.31
2023-02-06T19:22:35.322Z,102559.06
2023-02-06T19:25:40.980Z,102568.66
2023-02-06T19:28:44.813Z,102568.66
2023-02-06T19:31:48.037Z,102574.22
2023-02-06T19:34:51.498Z,102575.00
2023-02-06T19:37:54.784Z,102571.56
2023-02-06T19:41:04.348Z,102571.56
2023-02-06T19:44:13.777Z,102580.59
2023-02-06T19:47:16.696Z,102585.13
2023-02-06T19:50:19.966Z,102592.53
2023-02-06T19:53:24.422Z,102596.00
2023-02-06T19:56:31.511Z,102591.75
2023-02-06T19:59:35.670Z,102597.59
2023-02-06T20:02:39.746Z,102586.44
2023-02-06T20:05:43.787Z,102586.94
2023-02-06T20:08:47.832Z,102580.31
2023-02-06T20:11:51.580Z,102582.16
2023-02-06T20:14:54.463Z,102588.03
2023-02-06T20:17:58.598Z,102592.25
2023-02-06T20:21:03.215Z,102596.75
2023-02-06T20:24:12.930Z,102599.41
2023-02-06T20:27:16.270Z,102603.97
2023-02-06T20:30:22.097Z,102607.66
2023-02-06T20:33:25.290Z,102598.34
2023-02-06T20:36:29.102Z,102610.88
2023-02-06T20:39:34.848Z,102612.47
2023-02-06T20:42:42.294Z,102625.72
2023-02-06T20:45:48.999Z,102622.56
2023-02-06T20:49:04.286Z,102641.41
2023-02-06T20:52:07.983Z,102633.72
2023-02-06T20:55:12.516Z,102632.34
2023-02-06T20:58:15.644Z,102644.06
2023-02-06T21:01:24.583Z,102634.50
2023-02-06T21:04:32.443Z,102631.28
2023-02-06T21:07:35.545Z,102634.16
2023-02-06T21:10:39.359Z,102641.66
2023-02-06T21:13:42.874Z,102640.31
2023-02-06T21:16:46.935Z,102635.03
2023-02-06T21:19:51.219Z,102637.16
2023-02-06T21:22:55.230Z,102631.00
2023-02-06T21:25:59.211Z,102646.44
2023-02-06T21:29:03.066Z,102644.56
2023-02-06T21:32:13.560Z,102644.03
2023-02-06T21:35:16.717Z,102646.69
2023-02-06T21:38:20.487Z,102645.38
2023-02-06T21:41:23.919Z,102648.31
2023-02-06T21:44:26.889Z,102651.22
2023-02-06T21:47:29.849Z,102649.66
2023-02-06T21:50:34.052Z,102652.56
2023-02-06T21:53:37.235Z,102653.63
2023-02-06T21:56:40.110Z,102654.13
2023-02-06T21:59:43.732Z,102656.78
2023-02-06T22:02:47.889Z,102664.47
2023-02-06T22:05:50.782Z,102658.16
2023-02-06T22:08:55.942Z,102656.00
2023-02-06T22:11:58.895Z,102666.13
2023-02-06T22:15:02.916Z,102670.59
2023-02-06T22:18:09.320Z,102669.56
2023-02-06T22:21:17.666Z,102675.13
2023-02-06T22:24:20.657Z,102678.56
2023-02-06T22:27:25.674Z,102679.38
2023-02-06T22:30:29.443Z,102680.72
2023-02-06T22:33:33.623Z,102679.31
2023-02-06T22:36:36.562Z,102688.78
2023-02-06T22:39:39.594Z,102694.63
2023-02-06T22:42:42.529Z,102690.31
2023-02-06T22:45:45.484Z,102683.19
2023-02-06T22:48:49.048Z,102694.06
2023-02-06T22:51:52.472Z,102691.91
2023-02-06T22:54:55.331Z,102699.88
2023-02-06T22:57:58.230Z,102702.03
2023-02-06T23:01:03.850Z,102695.63
2023-02-06T23:04:11.456Z,102700.13
2023-02-06T23:07:15.333Z,102704.66
2023-02-06T23:10:19.272Z,102709.75
2023-02-06T23:13:22.565Z,102709.22
2023-02-06T23:16:27.143Z,102708.91
2023-02-06T23:19:30.483Z,102712.03
2023-02-06T23:22:33.408Z,102711.00
2023-02-06T23:25:43.337Z,102718.59
2023-02-06T23:28:46.762Z,102709.88
2023-02-06T23:31:50.500Z,102706.97
2023-02-06T23:34:55.866Z,102684.16
2023-02-06T23:37:58.894Z,102694.41
2023-02-06T23:41:22.977Z,102693.13
2023-02-06T23:44:25.900Z,102687.22
2023-02-06T23:47:28.766Z,102689.25
2023-02-06T23:50:32.207Z,102700.78
2023-02-06T23:53:35.336Z,102693.59
2023-02-06T23:56:40.938Z,102706.69
2023-02-06T23:59:44.378Z,102701.03
